createdAt,value
2022-09-30T00:02:10.138Z,97586.59
2022-09-30T00:04:36.966Z,97584.03
2022-09-30T00:07:03.634Z,97581.56
2022-09-30T00:09:30.358Z,97579.94
2022-09-30T00:11:57.076Z,97580.56
2022-09-30T00:14:23.742Z,97584.03
2022-09-30T00:16:50.641Z,97588.31
2022-09-30T00:19:17.411Z,97591.06
2022-09-30T00:21:44.236Z,97605.31
2022-09-30T00:24:11.061Z,97603.69
2022-09-30T00:26:37.756Z,97613.66
2022-09-30T00:29:05.074Z,97608.19
2022-09-30T00:31:34.577Z,97616.34
2022-09-30T00:34:08.196Z,97606.66
2022-09-30T00:36:45.435Z,97611.22
2022-09-30T00:39:16.015Z,97618.34
2022-09-30T00:41:43.811Z,97622.03
2022-09-30T00:44:47.177Z,97622.94
2022-09-30T00:47:43.611Z,97611.41
2022-09-30T00:50:22.761Z,97610.72
2022-09-30T00:53:00.385Z,97615.28
2022-09-30T00:55:44.773Z,97621.53
2022-09-30T00:58:15.930Z,97627.00
2022-09-30T01:00:43.166Z,97620.91
2022-09-30T01:03:10.017Z,97627.09
2022-09-30T01:05:36.722Z,97630.78
2022-09-30T01:08:06.361Z,97636.09
2022-09-30T01:10:33.057Z,97632.47
2022-09-30T01:13:00.528Z,97636.97
2022-09-30T01:16:06.869Z,97628.25
2022-09-30T01:19:00.950Z,97630.81
2022-09-30T01:21:45.746Z,97629.03
2022-09-30T01:24:34.065Z,97629.94
2022-09-30T01:27:22.584Z,97633.34
2022-09-30T01:30:13.229Z,97630.63
2022-09-30T01:32:52.412Z,97633.22
2022-09-30T01:35:31.690Z,97632.44
2022-09-30T01:37:58.254Z,97632.53
2022-09-30T01:40:54.002Z,97633.47
2022-09-30T01:43:29.684Z,97631.09
2022-09-30T01:46:08.713Z,97633.66
2022-09-30T01:48:45.403Z,97631.91
2022-09-30T01:51:22.549Z,97636.25
2022-09-30T01:54:28.405Z,97637.91
2022-09-30T01:57:03.640Z,97643.16
2022-09-30T01:59:37.675Z,97636.28
2022-09-30T02:02:09.056Z,97639.78
2022-09-30T02:04:45.019Z,97643.38
2022-09-30T02:07:17.259Z,97654.72
2022-09-30T02:09:53.806Z,97652.28
2022-09-30T02:12:26.582Z,97656.13
2022-09-30T02:15:08.306Z,97654.66
2022-09-30T02:17:45.291Z,97660.06
2022-09-30T02:20:32.786Z,97657.59
2022-09-30T02:23:06.488Z,97653.19
2022-09-30T02:25:39.210Z,97658.47
2022-09-30T02:28:11.248Z,97653.19
2022-09-30T02:30:43.020Z,97646.03
2022-09-30T02:33:15.594Z,97652.22
2022-09-30T02:35:50.253Z,97650.66
2022-09-30T02:38:20.954Z,97645.56
2022-09-30T02:40:56.981Z,97646.25
2022-09-30T02:43:24.319Z,97649.78
2022-09-30T02:46:22.226Z,97654.16
2022-09-30T02:49:01.015Z,97653.34
2022-09-30T02:51:50.840Z,97655.97
2022-09-30T02:54:28.594Z,97660.38
2022-09-30T02:57:02.486Z,97666.78
2022-09-30T02:59:29.223Z,97663.28
2022-09-30T03:01:56.288Z,97666.09
2022-09-30T03:04:26.991Z,97658.22
2022-09-30T03:06:54.447Z,97659.97
2022-09-30T03:09:26.328Z,97654.72
2022-09-30T03:12:23.733Z,97659.97
2022-09-30T03:15:07.475Z,97668.81
2022-09-30T03:17:55.822Z,97671.59
2022-09-30T03:20:34.594Z,97673.31
2022-09-30T03:23:35.099Z,97677.84
2022-09-30T03:26:40.378Z,97679.56
2022-09-30T03:29:27.017Z,97677.97
2022-09-30T03:31:56.628Z,97681.50
2022-09-30T03:34:51.550Z,97684.16
2022-09-30T03:37:34.661Z,97689.47
2022-09-30T03:40:04.457Z,97687.75
2022-09-30T03:42:43.777Z,97688.53
2022-09-30T03:45:24.550Z,97697.06
2022-09-30T03:47:55.827Z,97690.28
2022-09-30T03:50:25.893Z,97679.81
2022-09-30T03:52:52.946Z,97681.53
2022-09-30T03:55:19.956Z,97683.19
2022-09-30T03:57:46.666Z,97684.09
2022-09-30T04:00:13.821Z,97693.72
2022-09-30T04:02:41.231Z,97695.47
2022-09-30T04:05:08.658Z,97698.91
2022-09-30T04:07:35.606Z,97697.25
2022-09-30T04:10:02.623Z,97698.31
2022-09-30T04:12:29.261Z,97700.88
2022-09-30T04:14:55.891Z,97695.47
2022-09-30T04:17:22.921Z,97707.72
2022-09-30T04:19:49.947Z,97706.94
2022-09-30T04:22:16.582Z,97719.13
2022-09-30T04:24:43.835Z,97723.56
2022-09-30T04:27:10.540Z,97731.50
2022-09-30T04:29:37.119Z,97734.06
2022-09-30T04:32:03.922Z,97731.44
2022-09-30T04:34:31.033Z,97730.63
2022-09-30T04:36:57.735Z,97730.00
2022-09-30T04:39:24.325Z,97731.78
2022-09-30T04:41:53.809Z,97731.84
2022-09-30T04:44:21.406Z,97732.69
2022-09-30T04:46:48.622Z,97736.22
2022-09-30T04:49:15.349Z,97742.34
2022-09-30T04:51:45.933Z,97746.88
2022-09-30T04:54:13.270Z,97743.34
2022-09-30T04:56:39.896Z,97751.31
2022-09-30T04:59:07.045Z,97758.50
2022-09-30T05:01:34.045Z,97758.50
2022-09-30T05:04:01.141Z,97772.41
2022-09-30T05:06:28.765Z,97773.38
2022-09-30T05:08:55.642Z,97780.34
2022-09-30T05:11:22.788Z,97789.91
2022-09-30T05:13:50.947Z,97784.63
2022-09-30T05:16:18.452Z,97790.75
2022-09-30T05:18:46.186Z,97790.69
2022-09-30T05:21:18.349Z,97791.50
2022-09-30T05:23:45.396Z,97794.13
2022-09-30T05:26:12.983Z,97801.09
2022-09-30T05:28:43.529Z,97804.50
2022-09-30T05:31:12.224Z,97798.28
2022-09-30T05:33:40.302Z,97804.34
2022-09-30T05:36:09.142Z,97796.41
2022-09-30T05:38:36.307Z,97807.94
2022-09-30T05:41:08.393Z,97810.56
2022-09-30T05:43:37.135Z,97814.03
2022-09-30T05:46:04.078Z,97804.44
2022-09-30T05:48:30.890Z,97814.88
2022-09-30T05:50:59.794Z,97823.75
2022-09-30T05:53:26.623Z,97814.16
2022-09-30T05:55:54.366Z,97827.59
2022-09-30T05:58:21.350Z,97835.41
2022-09-30T06:00:49.606Z,97831.91
2022-09-30T06:03:17.871Z,97837.25
2022-09-30T06:05:45.756Z,97837.34
2022-09-30T06:08:13.952Z,97837.25
2022-09-30T06:10:42.546Z,97844.03
2022-09-30T06:13:09.632Z,97845.56
2022-09-30T06:15:38.879Z,97841.88
2022-09-30T06:18:06.047Z,97847.78
2022-09-30T06:20:32.989Z,97849.28
2022-09-30T06:23:00.881Z,97851.47
2022-09-30T06:25:29.456Z,97854.47
2022-09-30T06:27:56.653Z,97862.84
2022-09-30T06:30:23.371Z,97861.88
2022-09-30T06:32:50.097Z,97870.16
2022-09-30T06:35:17.195Z,97868.25
2022-09-30T06:37:44.557Z,97877.97
2022-09-30T06:40:11.232Z,97888.53
2022-09-30T06:42:38.168Z,97880.53
2022-09-30T06:45:05.275Z,97896.16
2022-09-30T06:47:33.332Z,97902.31
2022-09-30T06:50:00.164Z,97905.75
2022-09-30T06:52:27.187Z,97903.84
2022-09-30T06:54:56.559Z,97910.88
2022-09-30T06:57:24.995Z,97909.19
2022-09-30T06:59:51.968Z,97912.78
2022-09-30T07:02:19.159Z,97908.38
2022-09-30T07:04:45.990Z,97900.16
2022-09-30T07:07:12.661Z,97898.47
2022-09-30T07:09:39.441Z,97894.16
2022-09-30T07:12:08.800Z,97894.78
2022-09-30T07:14:36.946Z,97891.84
2022-09-30T07:17:04.537Z,97893.47
2022-09-30T07:19:32.113Z,97890.69
2022-09-30T07:22:21.660Z,97893.78
2022-09-30T07:24:48.432Z,97892.59
2022-09-30T07:27:15.194Z,97887.00
2022-09-30T07:30:07.124Z,97886.72
2022-09-30T07:32:28.606Z,97889.41
2022-09-30T07:34:55.356Z,97885.97
2022-09-30T07:37:24.775Z,97884.63
2022-09-30T07:39:51.609Z,97889.81
2022-09-30T07:42:24.415Z,97888.69
2022-09-30T07:44:52.134Z,97888.88
2022-09-30T07:47:19.768Z,97890.09
2022-09-30T07:49:46.718Z,97886.69
2022-09-30T07:52:14.353Z,97888.75
2022-09-30T07:54:45.469Z,97898.28
2022-09-30T07:57:16.553Z,97894.69
2022-09-30T07:59:43.378Z,97892.94
2022-09-30T08:02:16.534Z,97883.06
2022-09-30T08:04:44.511Z,97881.38
2022-09-30T08:07:13.611Z,97885.72
2022-09-30T08:09:40.293Z,97884.88
2022-09-30T08:12:06.989Z,97877.72
2022-09-30T08:14:33.697Z,97868.63
2022-09-30T08:17:00.960Z,97867.44
2022-09-30T08:19:29.495Z,97879.63
2022-09-30T08:21:56.842Z,97870.69
2022-09-30T08:24:24.945Z,97875.34
2022-09-30T08:26:52.740Z,97877.56
2022-09-30T08:32:06.338Z,97873.66
2022-09-30T08:34:35.253Z,97871.00
2022-09-30T08:37:06.306Z,97872.03
2022-09-30T08:39:36.355Z,97878.97
2022-09-30T08:42:36.886Z,97896.63
2022-09-30T08:45:07.231Z,97896.31
2022-09-30T08:47:49.008Z,97902.97
2022-09-30T08:50:38.751Z,97908.31
2022-09-30T08:53:23.972Z,97912.69
2022-09-30T08:55:53.125Z,97912.38
2022-09-30T08:58:29.308Z,97906.44
2022-09-30T09:01:05.586Z,97911.19
2022-09-30T09:03:34.251Z,97914.78
2022-09-30T09:06:20.606Z,97904.19
2022-09-30T09:09:01.581Z,97895.31
2022-09-30T09:11:50.963Z,97897.25
2022-09-30T09:14:54.995Z,97893.00
2022-09-30T09:17:31.015Z,97898.03
2022-09-30T09:20:01.011Z,97893.53
2022-09-30T09:22:30.130Z,97898.22
2022-09-30T09:24:58.866Z,97902.72
2022-09-30T09:30:12.353Z,97900.97
2022-09-30T09:32:39.447Z,97905.78
2022-09-30T09:35:21.743Z,97900.88
2022-09-30T09:38:35.734Z,97903.84
2022-09-30T09:41:17.715Z,97908.63
2022-09-30T09:44:26.931Z,97907.84
2022-09-30T09:47:05.301Z,97912.75
2022-09-30T09:49:40.057Z,97922.00
2022-09-30T09:52:14.499Z,97917.19
2022-09-30T09:54:47.230Z,97912.41
2022-09-30T09:57:24.753Z,97899.94
2022-09-30T09:59:58.648Z,97901.84
2022-09-30T10:02:31.881Z,97905.41
2022-09-30T10:05:03.538Z,97906.50
2022-09-30T10:07:32.809Z,97902.81
2022-09-30T10:10:08.767Z,97907.50
2022-09-30T10:12:35.864Z,97903.34
2022-09-30T10:15:12.122Z,97905.00
2022-09-30T10:17:39.853Z,97899.19
2022-09-30T10:20:15.819Z,97906.56
2022-09-30T10:22:43.077Z,97896.03
2022-09-30T10:25:23.053Z,97897.19
2022-09-30T10:27:54.974Z,97903.53
2022-09-30T10:30:38.849Z,97893.97
2022-09-30T10:33:14.417Z,97906.66
2022-09-30T10:35:53.398Z,97905.28
2022-09-30T10:38:21.010Z,97910.22
2022-09-30T10:40:51.283Z,97915.56
2022-09-30T10:43:23.566Z,97918.03
2022-09-30T10:46:13.458Z,97912.34
2022-09-30T10:48:39.759Z,97910.63
2022-09-30T10:51:23.071Z,97910.28
2022-09-30T10:53:50.002Z,97913.91
2022-09-30T10:56:34.810Z,97917.19
2022-09-30T10:59:04.775Z,97911.69
2022-09-30T11:01:47.440Z,97901.16
2022-09-30T11:04:31.676Z,97906.81
2022-09-30T11:07:11.700Z,97906.91
2022-09-30T11:09:46.530Z,97903.44
2022-09-30T11:12:43.423Z,97912.59
2022-09-30T11:15:21.464Z,97909.84
2022-09-30T11:17:55.274Z,97916.56
2022-09-30T11:20:32.424Z,97919.25
2022-09-30T11:23:06.101Z,97919.72
2022-09-30T11:25:57.574Z,97919.72
2022-09-30T11:28:39.778Z,97917.50
2022-09-30T11:31:26.365Z,97916.94
2022-09-30T11:34:17.761Z,97922.63
2022-09-30T11:36:59.592Z,97926.78
2022-09-30T11:39:29.141Z,97919.41
2022-09-30T11:42:01.757Z,97922.66
2022-09-30T11:44:34.558Z,97920.78
2022-09-30T11:47:38.328Z,97924.44
2022-09-30T11:50:25.059Z,97915.50
2022-09-30T11:53:07.859Z,97912.09
2022-09-30T11:56:13.470Z,97913.63
2022-09-30T11:58:45.617Z,97911.94
2022-09-30T12:01:15.214Z,97914.13
2022-09-30T12:03:58.986Z,97909.75
2022-09-30T12:06:34.344Z,97907.41
2022-09-30T12:09:24.035Z,97900.81
2022-09-30T12:12:02.221Z,97906.94
2022-09-30T12:14:35.839Z,97915.16
2022-09-30T12:17:07.795Z,97917.72
2022-09-30T12:19:44.388Z,97921.66
2022-09-30T12:22:24.779Z,97929.31
2022-09-30T12:24:51.425Z,97935.81
2022-09-30T12:27:34.792Z,97951.84
2022-09-30T12:30:17.504Z,97943.50
2022-09-30T12:33:34.116Z,97944.03
2022-09-30T12:36:18.010Z,97949.69
2022-09-30T12:39:06.560Z,97952.97
2022-09-30T12:42:13.581Z,97948.84
2022-09-30T12:44:49.246Z,97952.47
2022-09-30T12:47:38.585Z,97946.34
2022-09-30T12:50:08.332Z,97941.97
2022-09-30T12:52:36.831Z,97952.88
2022-09-30T12:55:39.104Z,97947.47
2022-09-30T12:58:15.950Z,97954.06
2022-09-30T13:01:00.538Z,97956.75
2022-09-30T13:03:27.669Z,97957.31
2022-09-30T13:06:06.219Z,97962.38
2022-09-30T13:08:43.172Z,97960.72
2022-09-30T13:11:42.618Z,97955.78
2022-09-30T13:14:15.916Z,97952.34
2022-09-30T13:17:07.449Z,97955.50
2022-09-30T13:19:48.377Z,97949.84
2022-09-30T13:22:18.039Z,97948.22
2022-09-30T13:25:03.105Z,97955.66
2022-09-30T13:27:39.904Z,97962.53
2022-09-30T13:30:18.485Z,97953.47
2022-09-30T13:32:51.351Z,97953.72
2022-09-30T13:35:48.643Z,97961.56
2022-09-30T13:38:15.224Z,97961.19
2022-09-30T13:41:02.706Z,97954.19
2022-09-30T13:44:01.073Z,97956.03
2022-09-30T13:46:43.603Z,97949.31
2022-09-30T13:49:19.471Z,97949.31
2022-09-30T13:51:46.435Z,97954.06
2022-09-30T13:54:34.031Z,97949.88
2022-09-30T13:57:02.432Z,97957.34
2022-09-30T13:59:31.716Z,97951.78
2022-09-30T14:02:07.284Z,97953.59
2022-09-30T14:05:14.099Z,97945.44
2022-09-30T14:07:54.293Z,97946.91
2022-09-30T14:10:42.037Z,97939.84
2022-09-30T14:13:27.882Z,97935.41
2022-09-30T14:16:19.187Z,97934.28
2022-09-30T14:18:48.569Z,97941.00
2022-09-30T14:21:30.666Z,97933.88
2022-09-30T14:24:04.114Z,97926.19
2022-09-30T14:26:49.514Z,97934.69
2022-09-30T14:29:42.492Z,97941.97
2022-09-30T14:32:12.131Z,97933.50
2022-09-30T14:34:39.019Z,97926.44
2022-09-30T14:37:06.955Z,97920.72
2022-09-30T14:39:33.664Z,97922.25
2022-09-30T14:42:04.781Z,97922.88
2022-09-30T14:44:36.179Z,97919.03
2022-09-30T14:47:04.889Z,97925.84
2022-09-30T14:49:35.968Z,97928.81
2022-09-30T14:52:03.920Z,97930.88
2022-09-30T14:54:32.666Z,97924.34
2022-09-30T14:57:02.909Z,97938.81
2022-09-30T14:59:33.307Z,97933.09
2022-09-30T15:02:03.594Z,97932.88
2022-09-30T15:04:33.835Z,97938.47
2022-09-30T15:07:04.078Z,97933.72
2022-09-30T15:09:37.221Z,97930.41
2022-09-30T15:12:07.891Z,97930.06
2022-09-30T15:14:48.694Z,97925.38
2022-09-30T15:17:19.220Z,97925.47
2022-09-30T15:19:46.019Z,97919.78
2022-09-30T15:22:14.317Z,97915.78
2022-09-30T15:24:42.014Z,97918.59
2022-09-30T15:27:19.663Z,97911.38
2022-09-30T15:30:00.599Z,97921.59
2022-09-30T15:32:31.279Z,97922.06
2022-09-30T15:35:05.376Z,97923.97
2022-09-30T15:37:33.689Z,97928.06
2022-09-30T15:40:20.895Z,97931.41
2022-09-30T15:42:56.748Z,97925.03
2022-09-30T15:45:36.453Z,97927.50
2022-09-30T15:48:07.548Z,97928.47
2022-09-30T15:50:39.221Z,97925.81
2022-09-30T15:53:40.018Z,97924.94
2022-09-30T15:56:15.892Z,97919.56
2022-09-30T15:58:55.452Z,97921.16
2022-09-30T16:01:49.995Z,97925.91
2022-09-30T16:04:16.704Z,97923.44
2022-09-30T16:06:58.206Z,97925.00
2022-09-30T16:09:30.798Z,97926.75
2022-09-30T16:12:33.103Z,97932.78
2022-09-30T16:15:01.969Z,97927.91
2022-09-30T16:17:37.869Z,97935.06
2022-09-30T16:20:22.165Z,97934.75
2022-09-30T16:22:59.219Z,97936.28
2022-09-30T16:25:31.858Z,97936.31
2022-09-30T16:28:15.158Z,97946.16
2022-09-30T16:30:48.440Z,97942.94
2022-09-30T16:33:15.755Z,97945.03
2022-09-30T16:35:43.866Z,97952.69
2022-09-30T16:38:14.397Z,97949.25
2022-09-30T16:40:41.175Z,97948.78
2022-09-30T16:43:11.485Z,97946.97
2022-09-30T16:45:39.858Z,97954.41
2022-09-30T16:48:17.691Z,97955.56
2022-09-30T16:50:51.496Z,97961.03
2022-09-30T16:53:18.247Z,97962.41
2022-09-30T16:55:45.096Z,97962.47
2022-09-30T16:58:14.726Z,97975.19
2022-09-30T17:00:44.321Z,97970.47
2022-09-30T17:03:17.571Z,97968.19
2022-09-30T17:05:46.219Z,97970.38
2022-09-30T17:08:14.640Z,97977.56
2022-09-30T17:10:43.581Z,97983.91
2022-09-30T17:13:10.451Z,97985.88
2022-09-30T17:15:37.390Z,97983.13
2022-09-30T17:18:09.370Z,97995.84
2022-09-30T17:20:37.486Z,98000.47
2022-09-30T17:23:07.320Z,98011.59
2022-09-30T17:25:34.955Z,98013.47
2022-09-30T17:28:01.702Z,98020.72
2022-09-30T17:30:28.458Z,98026.88
2022-09-30T17:32:55.095Z,98024.03
2022-09-30T17:35:22.524Z,98029.97
2022-09-30T17:37:49.761Z,98027.00
2022-09-30T17:40:34.880Z,98025.59
2022-09-30T17:43:07.512Z,98031.34
2022-09-30T17:45:35.526Z,98024.91
2022-09-30T17:48:02.466Z,98014.72
2022-09-30T17:50:29.324Z,98012.44
2022-09-30T17:52:56.297Z,98017.00
2022-09-30T17:55:23.039Z,98010.56
2022-09-30T17:57:50.691Z,98007.91
2022-09-30T18:00:17.371Z,98008.19
2022-09-30T18:02:44.620Z,98000.66
2022-09-30T18:05:11.725Z,97998.28
2022-09-30T18:07:38.497Z,98005.47
2022-09-30T18:10:05.609Z,98004.13
2022-09-30T18:12:34.167Z,98009.69
2022-09-30T18:15:01.070Z,98009.03
2022-09-30T18:17:28.172Z,98004.72
2022-09-30T18:19:54.910Z,98008.41
2022-09-30T18:22:21.587Z,98014.03
2022-09-30T18:25:06.716Z,98011.44
2022-09-30T18:27:36.259Z,98004.94
2022-09-30T18:30:05.127Z,97997.88
2022-09-30T18:32:32.260Z,98004.06
2022-09-30T18:34:58.968Z,98002.66
2022-09-30T18:37:28.131Z,97999.13
2022-09-30T18:39:54.788Z,98005.09
2022-09-30T18:42:21.408Z,97996.75
2022-09-30T18:44:48.772Z,97999.88
2022-09-30T18:47:17.071Z,98000.59
2022-09-30T18:49:44.535Z,97998.06
2022-09-30T18:52:11.332Z,98003.63
2022-09-30T18:54:38.031Z,98007.22
2022-09-30T18:57:05.059Z,98009.22
2022-09-30T18:59:31.760Z,98015.66
2022-09-30T19:01:59.645Z,98013.25
2022-09-30T19:04:26.390Z,98014.41
2022-09-30T19:06:53.174Z,98013.91
2022-09-30T19:09:19.888Z,98014.31
2022-09-30T19:11:48.012Z,98026.03
2022-09-30T19:14:15.497Z,98024.44
2022-09-30T19:16:43.440Z,98030.09
2022-09-30T19:19:10.872Z,98024.63
2022-09-30T19:21:38.788Z,98025.50
2022-09-30T19:24:08.236Z,98026.41
2022-09-30T19:26:37.769Z,98039.66
2022-09-30T19:29:05.823Z,98044.03
2022-09-30T19:31:33.870Z,98047.84
2022-09-30T19:34:01.945Z,98047.91
2022-09-30T19:36:31.459Z,98044.75
2022-09-30T19:39:12.127Z,98052.88
2022-09-30T19:41:39.420Z,98052.00
2022-09-30T19:44:06.078Z,98048.03
2022-09-30T19:46:32.895Z,98038.50
2022-09-30T19:48:59.538Z,98033.03
2022-09-30T19:51:29.047Z,98035.84
2022-09-30T19:54:04.530Z,98025.34
2022-09-30T19:56:34.240Z,98031.91
2022-09-30T19:59:01.004Z,98032.84
2022-09-30T20:01:29.387Z,98029.38
2022-09-30T20:03:59.262Z,98030.53
2022-09-30T20:06:27.959Z,98030.31
2022-09-30T20:09:00.075Z,98038.28
2022-09-30T20:11:29.853Z,98047.00
2022-09-30T20:14:15.619Z,98038.69
2022-09-30T20:16:43.636Z,98046.06
2022-09-30T20:19:13.139Z,98062.28
2022-09-30T20:21:41.874Z,98051.38
2022-09-30T20:24:14.556Z,98052.19
2022-09-30T20:26:42.705Z,98067.22
2022-09-30T20:29:10.248Z,98061.09
2022-09-30T20:31:41.233Z,98066.22
2022-09-30T20:34:11.861Z,98069.03
2022-09-30T20:36:40.234Z,98074.00
2022-09-30T20:39:07.826Z,98074.06
2022-09-30T20:41:37.798Z,98065.09
2022-09-30T20:44:11.847Z,98064.63
2022-09-30T20:46:41.345Z,98062.75
2022-09-30T20:49:08.717Z,98055.84
2022-09-30T20:51:36.050Z,98062.88
2022-09-30T20:54:03.382Z,98061.38
2022-09-30T20:56:44.380Z,98056.97
2022-09-30T20:59:17.513Z,98065.75
2022-09-30T21:01:44.210Z,98063.22
2022-09-30T21:04:11.055Z,98071.59
2022-09-30T21:06:37.686Z,98059.91
2022-09-30T21:09:05.381Z,98060.00
2022-09-30T21:11:32.435Z,98052.44
2022-09-30T21:13:59.813Z,98046.50
2022-09-30T21:18:53.617Z,98045.97
2022-09-30T21:21:21.681Z,98040.19
2022-09-30T21:23:48.697Z,98033.28
2022-09-30T21:26:17.320Z,98033.13
2022-09-30T21:28:49.378Z,98017.59
2022-09-30T21:31:29.033Z,98018.50
2022-09-30T21:34:00.942Z,98012.47
2022-09-30T21:36:28.857Z,98017.28
2022-09-30T21:39:03.662Z,98009.50
2022-09-30T21:41:32.615Z,98017.84
2022-09-30T21:44:03.850Z,98023.25
2022-09-30T21:46:30.568Z,98016.38
2022-09-30T21:49:14.194Z,98020.94
2022-09-30T21:51:41.724Z,98019.38
2022-09-30T21:54:11.724Z,98018.63
2022-09-30T21:56:38.494Z,98015.97
2022-09-30T21:59:05.647Z,98022.94
2022-09-30T22:01:33.007Z,98029.25
2022-09-30T22:03:59.976Z,98028.50
2022-09-30T22:06:26.919Z,98028.38
2022-09-30T22:08:53.542Z,98030.25
2022-09-30T22:11:24.787Z,98028.66
2022-09-30T22:13:55.518Z,98020.78
2022-09-30T22:16:24.303Z,98015.47
2022-09-30T22:18:55.134Z,98017.25
2022-09-30T22:21:22.087Z,98022.75
2022-09-30T22:23:49.568Z,98027.19
2022-09-30T22:26:18.552Z,98028.00
2022-09-30T22:28:46.607Z,98019.47
2022-09-30T22:31:19.784Z,97999.25
2022-09-30T22:34:06.443Z,98006.56
2022-09-30T22:36:52.349Z,98008.50
2022-09-30T22:39:20.365Z,98009.13
2022-09-30T22:41:47.139Z,98004.06
2022-09-30T22:44:14.742Z,98005.06
2022-09-30T22:46:41.447Z,98001.53
2022-09-30T22:49:08.153Z,97998.94
2022-09-30T22:51:34.911Z,97993.72
2022-09-30T22:54:03.361Z,97997.78
2022-09-30T22:56:30.620Z,98001.34
2022-09-30T22:58:58.164Z,98005.91
2022-09-30T23:01:25.522Z,97994.88
2022-09-30T23:03:56.083Z,97998.19
2022-09-30T23:06:24.533Z,98000.81
2022-09-30T23:08:52.448Z,97987.78
2022-09-30T23:11:19.361Z,97991.19
2022-09-30T23:13:46.579Z,97993.97
2022-09-30T23:16:15.234Z,97980.78
2022-09-30T23:18:42.426Z,97985.13
2022-09-30T23:21:18.309Z,97983.66
2022-09-30T23:23:48.263Z,97989.84
2022-09-30T23:26:17.493Z,97984.66
2022-09-30T23:28:45.183Z,97971.28
2022-09-30T23:31:14.572Z,97973.94
2022-09-30T23:33:47.075Z,97971.25
2022-09-30T23:36:15.159Z,97975.56
2022-09-30T23:38:42.010Z,97981.09
2022-09-30T23:41:09.705Z,97981.25
2022-09-30T23:43:37.053Z,97970.66
2022-09-30T23:46:06.251Z,97965.94
2022-09-30T23:48:34.304Z,97978.09
2022-09-30T23:51:01.322Z,97971.78
2022-09-30T23:53:27.920Z,97969.50
2022-09-30T23:56:02.807Z,97972.03
2022-09-30T23:58:30.137Z,97964.13
